Time;durP1;ratioP1;P1;durP2;ratioP2;P2;SDS_P1;SDS_P2;PMS_P1;PMS_P2;Temp;Humidity;BMP_temperature;BMP_pressure;BME280_temperature;BME280_humidity;BME280_pressure;Samples;Min_cycle;Max_cycle;Signal;HPM_P1;HPM_P2
2021/04/01 00:00:10;;;;;;;11.63;4.47;;;10.80;94.90;;;;;;6280957;28;20043;-88
2021/04/01 00:03:11;;;;;;;10.73;4.30;;;;;;;;;;6262888;28;20059;-87
2021/04/01 00:06:13;;;;;;;10.35;4.40;;;10.80;99.90;;;;;;6296357;28;20025;-88
2021/04/01 00:09:14;;;;;;;10.30;4.38;;;11.00;97.30;;;;;;6262687;28;20086;-87
2021/04/01 00:12:15;;;;;;;11.15;4.53;;;;;;;;;;6262713;28;20040;-87
2021/04/01 00:15:16;;;;;;;10.82;5.30;;;;;;;;;;6279391;28;20033;-87
2021/04/01 00:18:19;;;;;;;8.27;4.32;;;10.50;99.90;;;;;;6278986;28;20028;-87
2021/04/01 00:21:19;;;;;;;;;;;10.40;99.90;;;;;;6263847;28;20364;-88
2021/04/01 00:24:20;;;;;;;8.00;4.32;;;9.70;99.90;;;;;;6279377;28;19958;-87
2021/04/01 00:27:20;;;;;;;8.55;4.50;;;10.30;99.90;;;;;;6262170;28;20064;-86
2021/04/01 00:30:22;;;;;;;6.85;4.30;;;;;;;;;;6262166;28;20484;-87
2021/04/01 00:33:23;;;;;;;9.88;4.15;;;;;;;;;;6278354;28;20051;-86
2021/04/01 00:36:24;;;;;;;8.85;4.88;;;;;;;;;;6278389;28;20048;-87
2021/04/01 00:39:24;;;;;;;10.27;4.63;;;10.50;99.90;;;;;;6277982;28;20075;-87
2021/04/01 00:42:25;;;;;;;6.65;4.45;;;10.60;99.90;;;;;;6260937;28;20056;-87
2021/04/01 00:45:26;;;;;;;9.43;4.38;;;10.90;99.90;;;;;;6261364;28;20029;-86
2021/04/01 00:48:27;;;;;;;8.07;4.80;;;;;;;;;;6277647;28;20032;-87
2021/04/01 00:51:27;;;;;;;6.35;4.88;;;11.20;94.00;;;;;;6277821;28;20111;-87
2021/04/01 00:54:28;;;;;;;8.52;4.43;;;11.30;95.20;;;;;;6261302;28;20039;-87
2021/04/01 00:57:29;;;;;;;6.05;4.20;;;11.20;95.40;;;;;;6277774;28;20111;-87
2021/04/01 01:00:32;;;;;;;5.93;4.38;;;11.10;95.80;;;;;;6261082;28;20032;-86
2021/04/01 01:03:32;;;;;;;5.80;3.88;;;10.90;95.60;;;;;;6261548;28;20618;-85
2021/04/01 01:06:33;;;;;;;7.72;4.47;;;10.60;95.00;;;;;;6260985;28;20024;-87
2021/04/01 01:09:34;;;;;;;12.02;5.93;;;;;;;;;;6261128;28;20025;-86
2021/04/01 01:12:34;;;;;;;9.75;4.78;;;11.10;93.20;;;;;;6277841;28;20029;-86
2021/04/01 01:15:35;;;;;;;9.38;4.55;;;10.90;95.70;;;;;;6277740;28;20466;-87
2021/04/01 01:18:36;;;;;;;13.50;4.40;;;10.60;96.80;;;;;;6260808;28;20033;-87
2021/04/01 01:21:36;;;;;;;5.90;4.18;;;10.40;97.50;;;;;;6260777;28;20489;-86
2021/04/01 01:24:37;;;;;;;6.30;4.22;;;10.20;99.90;;;;;;6260260;28;20039;-86
2021/04/01 01:27:38;;;;;;;7.13;4.13;;;9.90;97.80;;;;;;6260212;28;20035;-86
2021/04/01 01:30:39;;;;;;;10.32;6.18;;;;;;;;;;6260586;28;20031;-87
2021/04/01 01:33:43;;;;;;;10.48;5.35;;;10.20;94.40;;;;;;6277126;28;20471;-86
2021/04/01 01:36:43;;;;;;;9.10;4.47;;;10.10;94.50;;;;;;6261303;28;20028;-86
2021/04/01 01:39:44;;;;;;;9.05;4.88;;;10.30;95.10;;;;;;6260484;28;20067;-87
2021/04/01 01:42:45;;;;;;;8.13;4.88;;;;;;;;;;6259976;28;20084;-88
2021/04/01 01:45:46;;;;;;;7.95;3.90;;;10.50;92.60;;;;;;6277412;28;20024;-87
2021/04/01 01:48:46;;;;;;;9.93;4.55;;;10.70;97.90;;;;;;6260091;28;20024;-87
2021/04/01 01:51:47;;;;;;;7.85;4.20;;;10.60;93.20;;;;;;6259751;28;20064;-88
2021/04/01 01:54:47;;;;;;;6.22;4.07;;;10.70;97.30;;;;;;6259634;28;20382;-87
2021/04/01 01:57:48;;;;;;;7.45;4.03;;;;;;;;;;6259971;28;20028;-86
2021/04/01 02:00:54;;;;;;;9.05;5.00;;;11.10;88.50;;;;;;6275981;28;20123;-87
2021/04/01 02:03:55;;;;;;;9.98;4.50;;;11.10;89.90;;;;;;6260323;28;20117;-86
2021/04/01 02:06:56;;;;;;;7.05;4.53;;;;;;;;;;6260583;28;20364;-87
2021/04/01 02:09:57;;;;;;;6.85;4.30;;;;;;;;;;6276109;28;20070;-86
2021/04/01 02:12:58;;;;;;;7.28;4.30;;;;;;;;;;6276206;28;20020;-87
2021/04/01 02:15:59;;;;;;;8.77;4.78;;;10.30;92.70;;;;;;6276049;28;20028;-86
2021/04/01 02:18:59;;;;;;;7.03;4.75;;;10.10;94.30;;;;;;6259486;28;20033;-86
2021/04/01 02:22:00;;;;;;;8.55;5.18;;;;;;;;;;6259613;28;20036;-86
2021/04/01 02:25:01;;;;;;;9.30;4.55;;;9.90;94.00;;;;;;6275966;28;20035;-86
2021/04/01 02:28:02;;;;;;;11.93;4.80;;;9.70;95.50;;;;;;6259274;28;20474;-85
2021/04/01 02:31:04;;;;;;;6.55;4.20;;;9.60;96.00;;;;;;6275496;28;20033;-86
2021/04/01 02:34:05;;;;;;;8.02;4.20;;;9.60;96.30;;;;;;6259281;28;20063;-86
2021/04/01 02:37:06;;;;;;;10.25;4.55;;;9.60;96.20;;;;;;6274143;28;20040;-86
2021/04/01 02:40:07;;;;;;;9.85;4.90;;;9.50;96.80;;;;;;6259059;28;20125;-86
2021/04/01 02:43:08;;;;;;;9.82;5.10;;;9.60;96.30;;;;;;6258168;28;20057;-86
2021/04/01 02:46:09;;;;;;;8.60;4.60;;;9.50;97.30;;;;;;6259251;28;20020;-87
2021/04/01 02:49:10;;;;;;;7.80;5.22;;;;;;;;;;6259084;28;20051;-87
2021/04/01 02:52:10;;;;;;;8.15;4.25;;;9.70;95.30;;;;;;6275759;28;20028;-86
2021/04/01 02:55:12;;;;;;;11.75;5.32;;;9.70;96.40;;;;;;6259232;28;20031;-87
2021/04/01 02:58:12;;;;;;;9.68;4.50;;;9.60;96.40;;;;;;6259737;28;20115;-88
2021/04/01 03:01:13;;;;;;;6.95;4.95;;;9.70;98.30;;;;;;6259163;28;20451;-87
2021/04/01 03:04:14;;;;;;;8.02;4.70;;;;;;;;;;6258675;28;20040;-87
2021/04/01 03:07:15;;;;;;;7.57;4.80;;;;;;;;;;6275562;28;20028;-86
2021/04/01 03:10:16;;;;;;;7.30;4.32;;;;;;;;;;6276317;28;20029;-86
2021/04/01 03:13:17;;;;;;;8.63;4.75;;;9.70;94.50;;;;;;6280140;28;20109;-86
2021/04/01 03:16:17;;;;;;;7.55;4.65;;;9.60;96.10;;;;;;6263633;28;20488;-85
2021/04/01 03:19:18;;;;;;;9.00;4.43;;;;;;;;;;6263434;28;20024;-85
2021/04/01 03:22:19;;;;;;;11.02;5.35;;;9.70;94.60;;;;;;6280102;28;20032;-86
2021/04/01 03:25:20;;;;;;;9.63;4.78;;;;;;;;;;6279942;28;20454;-86
2021/04/01 03:28:21;;;;;;;8.32;4.60;;;;;;;;;;6280271;28;20031;-88
2021/04/01 03:31:22;;;;;;;9.55;4.63;;;9.90;99.90;;;;;;6280482;28;20366;-86
2021/04/01 03:34:23;;;;;;;8.70;4.47;;;;;;;;;;6280404;28;20029;-87
2021/04/01 03:37:24;;;;;;;8.00;4.70;;;9.40;99.90;;;;;;6280529;28;20147;-89
2021/04/01 03:40:25;;;;;;;7.72;4.63;;;9.80;99.90;;;;;;6264470;28;20413;-88
2021/04/01 03:43:26;;;;;;;10.45;4.30;;;;;;;;;;6263707;28;20061;-88
2021/04/01 03:46:27;;;;;;;7.50;4.65;;;;;;;;;;6280808;28;20031;-87
2021/04/01 03:49:28;;;;;;;11.05;4.53;;;9.60;99.90;;;;;;6268801;28;20024;-87
2021/04/01 03:52:29;;;;;;;12.77;5.30;;;;;;;;;;6279804;28;20032;-87
2021/04/01 03:58:56;;;;;;;7.90;4.97;;;;;;;;;;6288254;28;20029;-88
2021/04/01 04:02:10;;;;;;;6.53;4.70;;;9.90;97.90;;;;;;6283292;28;20025;-87
2021/04/01 04:15:16;;;;;;;13.95;9.05;;;9.20;95.30;;;;;;6296589;28;20032;-88
2021/04/01 04:18:17;;;;;;;11.70;7.22;;;8.80;97.80;;;;;;6280267;28;20051;-87
2021/04/01 04:21:18;;;;;;;11.88;6.95;;;8.70;99.90;;;;;;6262064;28;20483;-87
2021/04/01 04:24:19;;;;;;;8.32;6.20;;;;;;;;;;6261959;28;20032;-87
2021/04/01 04:30:24;;;;;;;13.10;6.63;;;8.90;99.90;;;;;;6279868;28;20072;-87
2021/04/01 04:33:26;;;;;;;11.43;7.30;;;9.00;98.20;;;;;;6262734;28;20653;-88
2021/04/01 04:36:27;;;;;;;7.63;4.80;;;8.90;97.90;;;;;;6262420;28;20028;-88
2021/04/01 04:39:27;;;;;;;29.40;14.73;;;8.90;99.90;;;;;;6262016;28;20035;-87
2021/04/01 04:42:28;;;;;;;24.83;11.00;;;9.00;99.90;;;;;;6261548;28;20155;-87
2021/04/01 04:45:29;;;;;;;12.88;6.03;;;;;;;;;;6262360;28;20024;-87
2021/04/01 04:48:30;;;;;;;10.95;6.47;;;8.80;99.90;;;;;;6278605;28;20155;-88
2021/04/01 04:51:31;;;;;;;14.77;10.93;;;;;;;;;;6262401;28;20025;-88
2021/04/01 04:54:32;;;;;;;13.45;5.80;;;8.50;99.90;;;;;;6277900;28;20368;-86
2021/04/01 05:06:57;;;;;;;14.52;10.50;;;;;;;;;;6295077;28;20032;-86
2021/04/01 05:09:57;;;;;;;17.33;11.25;;;9.30;99.90;;;;;;6278082;28;20493;-87
2021/04/01 05:13:13;;;;;;;17.77;8.90;;;9.40;99.90;;;;;;6261272;28;20032;-87
2021/04/01 05:16:14;;;;;;;17.30;7.28;;;;;;;;;;6265541;28;20024;-87
2021/04/01 05:19:16;;;;;;;15.68;10.45;;;;;;;;;;6294615;28;20098;-87
2021/04/01 05:25:38;;;;;;;10.25;6.47;;;9.90;99.90;;;;;;6275620;28;20028;-81
2021/04/01 05:28:39;;;;;;;13.27;8.35;;;9.70;99.90;;;;;;6276365;28;20438;-84
2021/04/01 05:31:40;;;;;;;12.57;7.95;;;9.70;96.90;;;;;;6277463;28;20036;-83
2021/04/01 05:38:46;;;;;;;10.23;4.70;;;;;;;;;;6294333;28;20059;-86
2021/04/01 05:41:51;;;;;;;12.18;4.82;;;;;;;;;;6277464;28;20049;-84
2021/04/01 05:47:57;;;;;;;10.70;5.88;;;;;;;;;;6276657;28;20066;-84
2021/04/01 06:04:31;;;;;;;8.48;5.50;;;12.10;92.70;;;;;;6293191;28;20436;-88
2021/04/01 06:07:34;;;;;;;12.13;7.13;;;12.30;91.90;;;;;;6278614;28;20412;-87
2021/04/01 06:10:36;;;;;;;8.05;5.60;;;12.50;91.00;;;;;;6260487;28;20032;-85
2021/04/01 06:13:47;;;;;;;9.15;4.90;;;13.30;91.30;;;;;;6259652;28;20033;-86
2021/04/01 06:16:53;;;;;;;8.55;5.00;;;13.70;89.90;;;;;;6262887;28;20028;-85
2021/04/01 06:20:00;;;;;;;10.48;5.13;;;14.40;73.70;;;;;;6265089;28;20115;-85
2021/04/01 06:23:00;;;;;;;10.50;5.63;;;14.40;72.50;;;;;;6276214;28;20110;-85
2021/04/01 06:26:04;;;;;;;11.82;6.93;;;14.70;85.90;;;;;;6259341;28;20052;-89
2021/04/01 06:29:07;;;;;;;10.25;5.60;;;16.50;78.00;;;;;;6259257;28;20040;-89
2021/04/01 06:32:23;;;;;;;9.40;5.20;;;15.00;73.00;;;;;;6258600;28;20056;-90
2021/04/01 06:38:27;;;;;;;7.53;5.00;;;15.50;82.20;;;;;;6292556;28;20378;-87
2021/04/01 06:41:29;;;;;;;11.45;5.60;;;15.30;86.20;;;;;;6259328;28;20056;-85
2021/04/01 06:44:46;;;;;;;12.20;4.65;;;15.40;69.20;;;;;;6290994;28;20070;-86
2021/04/01 06:47:46;;;;;;;7.72;4.90;;;15.80;65.40;;;;;;6259748;28;20098;-90
2021/04/01 06:50:48;;;;;;;8.88;4.85;;;;;;;;;;6272719;28;20084;-89
2021/04/01 07:01:11;;;;;;;19.23;10.32;;;16.20;66.00;;;;;;6291148;28;20021;-86
2021/04/01 07:04:12;;;;;;;9.00;5.72;;;16.70;66.80;;;;;;6276859;28;20475;-91
2021/04/01 07:07:16;;;;;;;15.73;7.00;;;17.90;75.90;;;;;;6259077;28;20020;-87
2021/04/01 07:13:28;;;;;;;17.98;10.85;;;18.30;80.80;;;;;;6276054;28;20037;-88
2021/04/01 07:16:58;;;;;;;10.25;6.40;;;18.70;76.40;;;;;;6259481;28;20024;-87
2021/04/01 07:49:45;;;;;;;9.52;5.75;;;22.30;49.70;;;;;;6269789;28;20131;-87
2021/04/01 07:52:54;;;;;;;10.10;5.05;;;22.60;54.10;;;;;;6258750;28;20461;-88
2021/04/01 07:59:29;;;;;;;11.88;5.82;;;22.90;51.20;;;;;;6282099;28;20074;-91
2021/04/01 08:05:56;;;;;;;11.88;6.32;;;23.80;49.00;;;;;;6279911;28;20036;-88
2021/04/01 08:09:09;;;;;;;9.38;5.65;;;24.70;49.30;;;;;;6263168;28;20082;-90
2021/04/01 08:12:29;;;;;;;12.38;6.30;;;24.00;47.80;;;;;;6264330;28;20462;-83
2021/04/01 08:15:40;;;;;;;6.47;3.88;;;24.30;46.40;;;;;;6262548;28;20465;-85
2021/04/01 08:18:42;;;;;;;12.73;4.73;;;;;;;;;;6263322;28;20652;-85
2021/04/01 08:21:43;;;;;;;6.78;4.13;;;25.10;43.60;;;;;;6295333;28;20024;-86
2021/04/01 08:24:49;;;;;;;8.05;5.28;;;25.70;41.90;;;;;;6262845;28;20045;-88
2021/04/01 08:28:00;;;;;;;9.90;4.93;;;25.90;41.20;;;;;;6261737;28;20036;-85
2021/04/01 08:37:33;;;;;;;11.70;4.22;;;27.30;41.00;;;;;;6293360;28;20032;-85
2021/04/01 08:40:34;;;;;;;7.90;4.03;;;27.20;40.80;;;;;;6277833;28;20040;-80
2021/04/01 08:44:01;;;;;;;7.80;4.03;;;27.50;40.20;;;;;;6293868;28;20040;-80
2021/04/01 08:47:23;;;;;;;8.27;3.88;;;27.80;40.70;;;;;;6278505;28;20028;-79
2021/04/01 08:50:30;;;;;;;11.75;5.28;;;28.10;38.30;;;;;;6293175;28;20418;-79
2021/04/01 08:53:46;;;;;;;9.50;4.88;;;28.40;39.70;;;;;;6292947;28;20040;-79
2021/04/01 08:57:00;;;;;;;11.90;5.57;;;28.90;40.30;;;;;;6292596;28;20107;-79
2021/04/01 09:00:01;;;;;;;10.65;4.85;;;29.00;39.10;;;;;;6294369;28;20029;-80
2021/04/01 09:03:02;;;;;;;6.37;4.53;;;28.90;39.10;;;;;;6294543;28;20087;-80
2021/04/01 09:06:02;;;;;;;8.48;4.15;;;28.90;39.70;;;;;;6277705;28;20033;-79
2021/04/01 09:09:15;;;;;;;8.50;4.63;;;28.80;39.30;;;;;;6276549;28;20075;-79
2021/04/01 09:12:32;;;;;;;7.22;3.72;;;29.00;36.70;;;;;;6277575;28;20040;-79
2021/04/01 09:15:52;;;;;;;9.90;4.57;;;29.40;37.20;;;;;;6278613;28;20032;-80
2021/04/01 09:19:00;;;;;;;11.93;4.10;;;29.40;37.80;;;;;;6294951;28;20103;-79
2021/04/01 09:22:01;;;;;;;6.93;4.05;;;29.40;38.70;;;;;;6278257;28;20111;-79
2021/04/01 09:25:03;;;;;;;11.00;4.40;;;29.50;38.90;;;;;;6277122;28;20471;-80
2021/04/01 09:28:05;;;;;;;9.93;4.78;;;29.60;47.30;;;;;;6293164;28;20120;-79
2021/04/01 09:31:06;;;;;;;9.18;4.13;;;29.80;48.30;;;;;;6293368;28;20036;-80
2021/04/01 09:34:07;;;;;;;7.73;4.20;;;30.00;48.70;;;;;;6260078;28;20070;-80
2021/04/01 09:37:17;;;;;;;8.73;4.47;;;30.00;46.40;;;;;;6276783;28;20267;-80
2021/04/01 09:40:18;;;;;;;7.63;4.07;;;30.10;36.80;;;;;;6277789;28;20411;-80
2021/04/01 09:43:20;;;;;;;8.05;4.43;;;30.10;37.20;;;;;;6292400;28;20548;-80
2021/04/01 09:46:21;;;;;;;9.65;4.32;;;30.30;37.40;;;;;;6293010;28;20470;-80
2021/04/01 09:49:26;;;;;;;7.05;3.85;;;30.30;38.70;;;;;;6293048;28;20470;-79
2021/04/01 09:52:27;;;;;;;10.88;4.22;;;30.30;38.00;;;;;;6276925;28;20374;-80
2021/04/01 09:55:40;;;;;;;9.70;4.63;;;30.40;37.40;;;;;;6293042;28;20032;-80
2021/04/01 09:58:41;;;;;;;7.95;3.65;;;30.30;37.20;;;;;;6276660;28;20565;-80
2021/04/01 10:01:43;;;;;;;7.88;4.18;;;30.20;37.80;;;;;;6276251;28;20134;-80
2021/04/01 10:04:44;;;;;;;12.23;4.63;;;30.60;38.50;;;;;;6276180;28;20044;-80
2021/04/01 10:08:00;;;;;;;6.57;4.27;;;30.50;37.40;;;;;;6292827;28;20103;-79
2021/04/01 10:11:07;;;;;;;5.88;4.35;;;30.60;38.30;;;;;;6292692;28;20040;-79
2021/04/01 10:14:08;;;;;;;4.82;3.88;;;30.70;36.60;;;;;;6276753;28;20028;-79
2021/04/01 10:17:11;;;;;;;7.13;4.13;;;30.60;43.00;;;;;;6275873;28;20028;-80
2021/04/01 10:20:12;;;;;;;6.32;4.13;;;30.60;42.10;;;;;;6275000;28;20039;-80
2021/04/01 10:23:13;;;;;;;9.82;3.95;;;30.60;43.10;;;;;;6275356;28;20041;-80
2021/04/01 10:26:15;;;;;;;6.43;4.00;;;30.60;37.90;;;;;;6275704;28;20657;-80
2021/04/01 10:29:59;;;;;;;8.93;4.50;;;31.00;42.30;;;;;;6275841;28;20128;-79
2021/04/01 10:33:00;;;;;;;9.10;4.25;;;30.80;37.90;;;;;;6273330;28;20047;-80
2021/04/01 10:36:02;;;;;;;;;;;30.80;39.60;;;;;;6292411;28;20020;-80
2021/04/01 10:39:10;;;;;;;8.73;3.33;;;31.00;38.70;;;;;;6292474;28;19908;-80
2021/04/01 10:42:11;;;;;;;6.55;3.78;;;31.00;37.60;;;;;;6276289;28;20125;-80
2021/04/01 10:45:15;;;;;;;6.05;4.07;;;31.20;59.30;;;;;;6291887;28;20037;-80
2021/04/01 10:48:23;;;;;;;5.45;3.78;;;31.10;41.50;;;;;;6292123;28;20024;-80
2021/04/01 10:51:26;;;;;;;5.82;4.00;;;30.80;37.20;;;;;;6291482;28;20425;-79
2021/04/01 10:54:53;;;;;;;7.72;3.65;;;30.80;43.50;;;;;;6291372;28;20028;-79
2021/04/01 10:57:54;;;;;;;12.27;3.88;;;30.70;43.00;;;;;;6289563;28;20043;-79
2021/04/01 11:00:55;;;;;;;6.85;3.95;;;30.60;45.00;;;;;;6275335;28;20387;-79
2021/04/01 11:03:57;;;;;;;;;;;30.70;36.50;;;;;;6291824;28;20101;-79
2021/04/01 11:07:01;;;;;;;4.53;3.60;;;30.50;37.30;;;;;;6291599;28;19911;-79
2021/04/01 11:10:03;;;;;;;9.15;3.83;;;30.50;37.70;;;;;;6291235;28;20035;-79
2021/04/01 11:13:05;;;;;;;5.95;3.53;;;30.40;39.30;;;;;;6275006;28;20052;-79
2021/04/01 11:16:08;;;;;;;6.43;3.60;;;30.40;37.40;;;;;;6274875;28;20828;-79
2021/04/01 11:19:09;;;;;;;8.50;3.97;;;30.30;36.90;;;;;;6274642;28;20024;-79
2021/04/01 11:22:09;;;;;;;6.07;3.50;;;30.10;37.00;;;;;;6257929;28;20032;-79
2021/04/01 11:25:11;;;;;;;6.07;3.80;;;30.10;37.10;;;;;;6291301;28;20068;-79
2021/04/01 11:28:12;;;;;;;7.22;4.32;;;30.00;36.90;;;;;;6273620;28;20021;-79
2021/04/01 11:31:29;;;;;;;9.00;4.20;;;29.90;38.00;;;;;;6292872;28;20422;-79
2021/04/01 11:34:29;;;;;;;4.18;3.55;;;29.80;38.20;;;;;;6296541;28;20071;-79
2021/04/01 11:37:35;;;;;;;11.30;3.77;;;29.70;38.60;;;;;;6279539;28;20382;-79
2021/04/01 11:40:37;;;;;;;9.02;3.97;;;29.60;38.90;;;;;;6280027;28;20267;-79
2021/04/01 11:43:38;;;;;;;7.20;4.03;;;29.70;38.30;;;;;;6279570;28;20048;-79
2021/04/01 11:46:41;;;;;;;7.57;3.47;;;29.60;38.20;;;;;;6279370;28;20501;-79
2021/04/01 11:49:43;;;;;;;5.95;3.63;;;29.50;38.10;;;;;;6296099;28;20151;-78
2021/04/01 11:52:44;;;;;;;6.90;3.80;;;29.50;38.20;;;;;;6279549;28;20078;-79
2021/04/01 11:55:52;;;;;;;8.23;3.80;;;29.30;38.00;;;;;;6278808;28;20020;-79
2021/04/01 11:58:53;;;;;;;8.00;4.07;;;29.20;38.10;;;;;;6279135;28;20378;-79
2021/04/01 12:01:57;;;;;;;6.07;3.67;;;29.10;38.10;;;;;;6279251;28;20036;-80
2021/04/01 12:04:59;;;;;;;5.25;3.78;;;29.10;37.30;;;;;;6279654;28;20040;-79
2021/04/01 12:08:01;;;;;;;4.22;3.42;;;29.00;37.60;;;;;;6262344;28;20390;-79
2021/04/01 12:11:01;;;;;;;;;;;29.00;38.20;;;;;;6279409;28;20025;-79
2021/04/01 12:14:10;;;;;;;8.43;3.80;;;29.00;38.10;;;;;;6295099;28;19905;-79
2021/04/01 12:17:10;;;;;;;7.88;4.15;;;28.80;37.10;;;;;;6295397;28;20042;-79
2021/04/01 12:20:13;;;;;;;9.30;3.70;;;28.90;37.30;;;;;;6296550;28;20032;-80
2021/04/01 12:23:15;;;;;;;7.50;3.63;;;28.70;38.20;;;;;;6278688;28;20528;-79
2021/04/01 12:26:17;;;;;;;9.57;3.50;;;28.70;38.50;;;;;;6295089;28;20091;-79
2021/04/01 12:29:22;;;;;;;6.18;3.60;;;28.70;38.00;;;;;;6280931;28;20036;-80
2021/04/01 12:32:27;;;;;;;5.38;4.18;;;28.60;39.50;;;;;;6279312;28;20031;-79
2021/04/01 12:35:28;;;;;;;9.23;4.07;;;28.60;38.40;;;;;;6278130;28;20036;-80
2021/04/01 12:38:30;;;;;;;7.77;3.57;;;28.40;37.30;;;;;;6296441;28;20035;-80
2021/04/01 12:41:32;;;;;;;5.80;3.72;;;28.40;38.70;;;;;;6278138;28;20445;-80
2021/04/01 12:44:40;;;;;;;4.28;3.08;;;28.40;47.70;;;;;;6260651;28;20044;-80
2021/04/01 12:47:41;;;;;;;8.20;3.70;;;28.30;48.80;;;;;;6277958;28;20466;-80
2021/04/01 12:50:44;;;;;;;7.10;4.30;;;28.30;48.40;;;;;;6294650;28;20028;-80
2021/04/01 12:53:54;;;;;;;7.15;3.60;;;28.20;37.90;;;;;;6277918;28;20028;-80
2021/04/01 12:57:00;;;;;;;6.00;3.78;;;28.20;39.50;;;;;;6279225;28;20024;-80
2021/04/01 13:00:01;;;;;;;6.35;3.70;;;28.00;39.10;;;;;;6262652;28;20464;-79
2021/04/01 13:03:02;;;;;;;9.85;3.30;;;27.90;38.80;;;;;;6293714;28;20463;-79
2021/04/01 13:06:25;;;;;;;4.33;3.10;;;27.90;37.90;;;;;;6260483;28;20081;-80
2021/04/01 13:12:26;;;;;;;5.63;3.30;;;27.80;37.40;;;;;;6293827;28;20112;-79
2021/04/01 13:15:27;;;;;;;5.73;3.30;;;29.40;39.80;;;;;;6277250;28;20028;-80
2021/04/01 13:18:27;;;;;;;5.20;3.50;;;27.90;39.00;;;;;;6277480;28;20471;-80
2021/04/01 13:22:31;;;;;;;4.80;3.00;;;28.00;37.70;;;;;;6293525;28;20107;-80
2021/04/01 13:28:07;;;;;;;5.63;3.28;;;27.80;37.40;;;;;;6293603;28;20089;-80
2021/04/01 13:31:13;;;;;;;4.45;3.35;;;27.80;39.00;;;;;;6276928;28;20025;-80
2021/04/01 13:37:29;;;;;;;5.75;3.40;;;27.70;39.10;;;;;;6293744;28;20032;-80
2021/04/01 13:40:30;;;;;;;5.97;3.63;;;27.50;36.50;;;;;;6293719;28;20024;-80
2021/04/01 13:43:31;;;;;;;7.18;3.55;;;27.40;39.30;;;;;;6276125;28;20041;-80
2021/04/01 13:46:32;;;;;;;4.72;3.38;;;27.40;38.50;;;;;;6294338;28;20039;-80
2021/04/01 13:49:33;;;;;;;6.77;3.77;;;27.20;39.40;;;;;;6275919;28;20099;-80
2021/04/01 13:52:39;;;;;;;5.88;3.85;;;27.40;39.90;;;;;;6275922;28;20032;-80
2021/04/01 13:55:43;;;;;;;7.05;3.22;;;27.10;38.30;;;;;;6293888;28;20058;-80
2021/04/01 14:09:17;;;;;;;4.65;3.30;;;27.00;37.60;;;;;;6293513;28;20048;-80
2021/04/01 14:12:21;;;;;;;6.57;3.17;;;27.00;38.90;;;;;;6276447;28;20074;-79
2021/04/01 14:15:21;;;;;;;6.25;3.28;;;27.00;38.80;;;;;;6293716;28;20028;-80
2021/04/01 14:18:22;;;;;;;7.60;3.20;;;27.00;40.20;;;;;;6293972;28;20028;-80
2021/04/01 14:21:23;;;;;;;3.40;2.73;;;26.90;40.80;;;;;;6258861;28;20078;-80
2021/04/01 14:24:30;;;;;;;5.27;3.07;;;27.00;39.90;;;;;;6292202;28;20106;-79
2021/04/01 14:27:43;;;;;;;9.38;3.55;;;26.90;40.40;;;;;;6293416;28;20733;-79
2021/04/01 14:30:43;;;;;;;4.38;3.28;;;26.80;39.30;;;;;;6277173;28;20032;-80
2021/04/01 14:33:45;;;;;;;5.70;3.60;;;26.90;39.10;;;;;;6275544;28;20032;-80
2021/04/01 14:36:45;;;;;;;6.05;3.58;;;26.70;37.70;;;;;;6275605;28;20113;-79
2021/04/01 14:39:46;;;;;;;4.70;2.90;;;26.50;36.40;;;;;;6275054;28;20514;-80
2021/04/01 14:42:50;;;;;;;5.93;3.60;;;26.40;39.80;;;;;;6274837;28;20070;-80
2021/04/01 14:45:51;;;;;;;6.53;3.63;;;26.20;38.00;;;;;;6255954;28;20465;-80
2021/04/01 14:48:51;;;;;;;5.67;3.70;;;26.30;37.80;;;;;;6275153;28;20031;-80
2021/04/01 14:51:52;;;;;;;8.47;3.47;;;26.30;38.50;;;;;;6291773;28;20029;-80
2021/04/01 14:54:55;;;;;;;4.37;3.30;;;26.10;40.30;;;;;;6242119;28;20142;-80
2021/04/01 14:57:55;;;;;;;7.70;3.35;;;25.90;39.20;;;;;;6275224;28;20518;-80
2021/04/01 15:00:56;;;;;;;5.10;3.43;;;25.90;39.90;;;;;;6275258;28;20038;-80
2021/04/01 15:03:57;;;;;;;4.67;3.20;;;25.90;38.60;;;;;;6275598;28;20090;-80
2021/04/01 15:06:58;;;;;;;6.10;3.10;;;25.90;37.50;;;;;;6278697;28;20033;-80
2021/04/01 15:10:06;;;;;;;5.27;3.17;;;26.00;37.60;;;;;;6284068;28;20478;-79
2021/04/01 15:13:06;;;;;;;4.03;3.08;;;26.00;37.60;;;;;;6263884;28;20046;-79
2021/04/01 15:16:09;;;;;;;5.80;3.67;;;26.00;39.30;;;;;;6292463;28;20033;-80
2021/04/01 15:19:09;;;;;;;6.00;3.20;;;25.90;39.70;;;;;;6292138;28;20035;-80
2021/04/01 15:22:10;;;;;;;7.30;3.43;;;25.20;39.00;;;;;;6275853;28;20037;-80
2021/04/01 15:25:14;;;;;;;6.07;3.10;;;25.90;37.10;;;;;;6275876;28;20471;-80
2021/04/01 15:28:15;;;;;;;4.72;3.60;;;25.80;35.50;;;;;;6259437;28;20032;-80
2021/04/01 15:31:16;;;;;;;3.93;3.30;;;25.80;37.10;;;;;;6274744;28;20398;-80
2021/04/01 15:34:17;;;;;;;4.07;2.83;;;25.80;37.70;;;;;;6274752;28;20529;-80
2021/04/01 15:37:18;;;;;;;6.40;3.43;;;25.80;37.20;;;;;;6292786;28;20295;-80
2021/04/01 15:40:18;;;;;;;6.23;3.57;;;25.70;37.70;;;;;;6274224;28;20090;-80
2021/04/01 15:43:20;;;;;;;4.93;3.27;;;25.60;39.10;;;;;;6275029;28;20536;-80
2021/04/01 15:46:21;;;;;;;4.80;3.30;;;25.30;36.50;;;;;;6274577;28;20082;-80
2021/04/01 15:49:22;;;;;;;5.40;3.40;;;25.40;37.90;;;;;;6290710;28;20090;-79
2021/04/01 15:52:23;;;;;;;6.93;3.40;;;25.40;37.90;;;;;;6292728;28;20103;-79
2021/04/01 15:55:24;;;;;;;7.77;3.63;;;25.40;37.60;;;;;;6292054;28;20051;-79
2021/04/01 15:58:24;;;;;;;5.47;3.50;;;25.20;37.10;;;;;;6290845;28;20313;-80
2021/04/01 16:01:25;;;;;;;6.07;3.60;;;25.20;38.30;;;;;;6290730;28;20033;-80
2021/04/01 16:04:25;;;;;;;8.33;3.83;;;25.20;38.60;;;;;;6290712;28;20047;-80
2021/04/01 16:07:26;;;;;;;8.00;3.57;;;25.10;39.10;;;;;;6291604;28;20036;-79
2021/04/01 16:10:29;;;;;;;10.40;3.50;;;25.10;40.20;;;;;;6273980;28;20028;-80
2021/04/01 16:13:30;;;;;;;5.53;3.88;;;24.90;40.00;;;;;;6290855;28;20036;-79
2021/04/01 16:16:32;;;;;;;7.30;3.80;;;24.80;39.80;;;;;;6257622;28;20108;-80
2021/04/01 16:19:32;;;;;;;7.43;3.85;;;24.70;39.60;;;;;;6277358;28;20020;-80
2021/04/01 16:22:33;;;;;;;5.97;3.97;;;25.20;40.90;;;;;;6295974;28;20507;-79
2021/04/01 16:25:34;;;;;;;5.28;3.67;;;24.40;41.80;;;;;;6278299;28;20024;-80
2021/04/01 16:28:35;;;;;;;6.50;4.10;;;24.40;40.70;;;;;;6294810;28;20044;-80
2021/04/01 16:31:35;;;;;;;5.13;4.10;;;24.20;40.70;;;;;;6295301;28;20059;-80
2021/04/01 16:34:36;;;;;;;5.40;3.87;;;24.20;41.10;;;;;;6278243;28;20115;-80
2021/04/01 16:37:37;;;;;;;8.10;4.10;;;24.00;40.70;;;;;;6278219;28;20032;-80
2021/04/01 16:40:37;;;;;;;8.57;3.97;;;24.00;52.20;;;;;;6294592;28;20068;-80
2021/04/01 16:43:38;;;;;;;5.93;4.17;;;23.90;51.80;;;;;;6296030;28;20051;-80
2021/04/01 16:46:38;;;;;;;5.70;4.13;;;23.70;52.50;;;;;;6277824;28;20033;-80
2021/04/01 16:49:39;;;;;;;7.30;3.90;;;23.70;53.00;;;;;;6260736;28;20028;-80
2021/04/01 16:53:16;;;;;;;11.37;3.97;;;23.60;53.50;;;;;;6294339;28;20076;-80
2021/04/01 16:56:17;;;;;;;6.32;3.92;;;23.50;41.00;;;;;;6294224;28;20033;-80
2021/04/01 16:59:19;;;;;;;9.80;4.23;;;23.40;55.00;;;;;;6294093;28;20020;-79
2021/04/01 17:02:20;;;;;;;8.25;4.35;;;23.30;54.50;;;;;;6277739;28;20435;-80
2021/04/01 17:05:20;;;;;;;11.50;4.47;;;23.40;43.30;;;;;;6277527;28;20087;-80
2021/04/01 17:08:21;;;;;;;8.15;4.20;;;23.00;43.30;;;;;;6293766;28;20070;-80
2021/04/01 17:11:22;;;;;;;5.10;4.37;;;23.00;43.70;;;;;;6260747;28;20028;-80
2021/04/01 17:14:22;;;;;;;8.77;4.85;;;22.90;42.80;;;;;;6293735;28;20024;-80
2021/04/01 17:17:23;;;;;;;8.50;4.17;;;22.80;43.50;;;;;;6294025;28;20024;-80
2021/04/01 17:20:24;;;;;;;10.63;4.30;;;22.60;43.60;;;;;;6293634;28;20138;-80
2021/04/01 17:23:25;;;;;;;5.57;4.22;;;22.50;44.10;;;;;;6293687;28;20048;-80
2021/04/01 17:26:26;;;;;;;13.88;4.25;;;22.50;44.10;;;;;;6291345;28;20037;-80
2021/04/01 17:29:27;;;;;;;11.05;4.32;;;22.30;43.90;;;;;;6290334;28;20025;-79
2021/04/01 17:32:27;;;;;;;5.20;3.73;;;22.20;45.10;;;;;;6295375;28;20067;-79
2021/04/01 17:35:28;;;;;;;6.90;3.97;;;22.20;44.80;;;;;;6276837;28;20032;-79
2021/04/01 17:38:28;;;;;;;6.63;3.85;;;22.10;44.40;;;;;;6260318;28;20036;-79
2021/04/01 17:41:29;;;;;;;7.07;3.95;;;21.90;44.10;;;;;;6292685;28;20417;-80
2021/04/01 17:44:31;;;;;;;6.95;3.70;;;21.80;44.40;;;;;;6293331;28;20047;-79
2021/04/01 17:47:32;;;;;;;6.95;4.25;;;21.70;44.00;;;;;;6276397;28;20403;-79
2021/04/01 17:50:32;;;;;;;5.88;3.90;;;21.60;44.30;;;;;;6260026;28;20021;-79
2021/04/01 17:53:33;;;;;;;6.93;4.32;;;21.50;45.20;;;;;;6293169;28;20028;-79
2021/04/01 17:56:33;;;;;;;5.70;3.90;;;21.40;46.60;;;;;;6259692;28;20082;-79
2021/04/01 18:22:01;;;;;;;8.80;4.88;;;20.80;52.70;;;;;;6278795;28;20036;-79
2021/04/01 18:26:46;;;;;;;11.63;6.85;;;19.50;55.90;;;;;;6277151;28;20106;-79
2021/04/01 18:29:41;;;;;;;9.25;6.35;;;19.30;58.60;;;;;;6277065;28;20072;-79
2021/04/01 18:32:50;;;;;;;11.10;6.55;;;19.10;59.60;;;;;;6275890;28;20099;-79
2021/04/01 18:36:02;;;;;;;11.25;6.72;;;18.60;60.80;;;;;;6292975;28;20115;-79